createdAt,value
2023-05-10T00:00:30.492Z,4.83
2023-05-10T00:02:58.558Z,4.07
2023-05-10T00:05:26.589Z,4.73
2023-05-10T00:07:54.392Z,4.80
2023-05-10T00:10:22.137Z,4.93
2023-05-10T00:12:49.969Z,8.23
2023-05-10T00:15:19.061Z,8.50
2023-05-10T00:17:46.872Z,6.17
2023-05-10T00:20:14.757Z,4.50
2023-05-10T00:22:42.661Z,5.30
2023-05-10T00:25:11.303Z,6.03
2023-05-10T00:27:38.988Z,9.27
2023-05-10T00:30:08.326Z,6.07
2023-05-10T00:32:37.644Z,6.03
2023-05-10T00:35:05.998Z,4.57
2023-05-10T00:37:33.714Z,4.63
2023-05-10T00:40:01.472Z,5.17
2023-05-10T00:42:29.276Z,4.87
2023-05-10T00:44:57.323Z,8.90
2023-05-10T00:47:25.402Z,5.57
2023-05-10T00:49:54.598Z,5.13
2023-05-10T00:52:24.249Z,5.87
2023-05-10T00:54:53.310Z,7.50
2023-05-10T00:57:21.299Z,5.10
2023-05-10T00:59:49.931Z,4.20
2023-05-10T01:02:17.769Z,4.80
2023-05-10T01:04:45.502Z,6.03
2023-05-10T01:07:14.708Z,5.47
2023-05-10T01:09:42.574Z,6.53
2023-05-10T01:12:10.514Z,4.73
2023-05-10T01:14:38.613Z,10.87
2023-05-10T01:17:08.102Z,5.10
2023-05-10T01:19:38.622Z,5.07
2023-05-10T01:22:29.541Z,6.60
2023-05-10T01:25:33.758Z,5.13
2023-05-10T01:28:24.047Z,6.10
2023-05-10T01:31:24.765Z,5.30
2023-05-10T01:33:59.852Z,5.30
2023-05-10T01:36:33.456Z,5.63
2023-05-10T01:39:05.630Z,8.47
2023-05-10T01:41:42.069Z,6.47
2023-05-10T01:44:16.673Z,6.73
2023-05-10T01:46:44.593Z,6.43
2023-05-10T01:49:22.760Z,5.47
2023-05-10T01:51:57.476Z,6.37
2023-05-10T01:54:27.740Z,4.63
2023-05-10T01:57:01.354Z,7.17
2023-05-10T01:59:32.685Z,5.00
2023-05-10T02:02:02.099Z,5.03
2023-05-10T02:04:31.890Z,4.60
2023-05-10T02:07:03.421Z,6.67
2023-05-10T02:09:34.002Z,7.67
2023-05-10T02:12:03.952Z,10.97
2023-05-10T02:14:34.242Z,8.07
2023-05-10T02:17:04.464Z,6.67
2023-05-10T02:19:35.028Z,6.17
2023-05-10T02:22:03.854Z,5.87
2023-05-10T02:24:32.570Z,5.50
2023-05-10T02:27:01.937Z,6.97
2023-05-10T02:29:31.250Z,6.60
2023-05-10T02:32:00.721Z,5.63
2023-05-10T02:34:29.914Z,6.33
2023-05-10T02:37:00.601Z,8.50
2023-05-10T02:39:31.068Z,6.83
2023-05-10T02:41:59.575Z,6.03
2023-05-10T02:44:32.219Z,6.57
2023-05-10T02:47:00.203Z,5.43
2023-05-10T02:49:28.306Z,7.17
2023-05-10T02:52:02.061Z,8.00
2023-05-10T02:54:34.265Z,7.00
2023-05-10T02:57:06.514Z,7.43
2023-05-10T02:59:34.603Z,7.13
2023-05-10T03:02:03.274Z,6.37
2023-05-10T03:04:31.123Z,8.17
2023-05-10T03:07:00.512Z,8.23
2023-05-10T03:09:28.457Z,8.43
2023-05-10T03:12:03.076Z,6.37
2023-05-10T03:14:42.008Z,7.73
2023-05-10T03:17:17.087Z,7.13
2023-05-10T03:19:51.975Z,8.83
2023-05-10T03:22:25.718Z,9.57
2023-05-10T03:24:57.145Z,6.17
2023-05-10T03:27:27.135Z,8.30
2023-05-10T03:29:55.729Z,7.83
2023-05-10T03:32:24.161Z,6.87
2023-05-10T03:34:52.110Z,8.20
2023-05-10T03:37:21.370Z,7.30
2023-05-10T03:39:49.204Z,7.80
2023-05-10T03:42:18.802Z,8.63
2023-05-10T03:44:46.591Z,7.43
2023-05-10T03:47:14.301Z,6.50
2023-05-10T03:49:42.029Z,5.73
2023-05-10T03:52:09.826Z,7.07
2023-05-10T03:54:38.980Z,9.10
2023-05-10T03:57:06.712Z,5.80
2023-05-10T03:59:34.454Z,6.77
2023-05-10T04:02:02.385Z,7.57
2023-05-10T04:04:30.064Z,8.20
2023-05-10T04:06:57.807Z,8.73
2023-05-10T04:09:25.734Z,7.80
2023-05-10T04:11:54.816Z,8.43
2023-05-10T04:14:22.668Z,7.53
2023-05-10T04:16:50.501Z,12.77
2023-05-10T04:19:18.228Z,10.50
2023-05-10T04:21:46.021Z,6.93
2023-05-10T04:24:14.165Z,6.73
2023-05-10T04:26:41.859Z,6.97
2023-05-10T04:29:10.886Z,9.10
2023-05-10T04:31:38.812Z,6.80
2023-05-10T04:34:06.707Z,8.73
2023-05-10T04:36:36.338Z,7.33
2023-05-10T04:39:04.792Z,6.67
2023-05-10T04:41:33.578Z,7.30
2023-05-10T04:44:01.255Z,7.77
2023-05-10T04:46:30.368Z,9.53
2023-05-10T04:48:58.176Z,7.60
2023-05-10T04:51:26.091Z,8.30
2023-05-10T04:54:05.370Z,9.93
2023-05-10T04:56:33.985Z,8.40
2023-05-10T04:59:01.715Z,8.30
2023-05-10T05:01:30.828Z,10.13
2023-05-10T05:03:58.800Z,7.40
2023-05-10T05:06:28.112Z,8.07
2023-05-10T05:08:56.605Z,7.03
2023-05-10T05:11:24.236Z,8.73
2023-05-10T05:13:52.611Z,9.03
2023-05-10T05:16:20.432Z,8.13
2023-05-10T05:18:49.592Z,7.73
2023-05-10T05:21:17.977Z,9.50
2023-05-10T05:23:46.181Z,7.30
2023-05-10T05:26:14.605Z,9.33
2023-05-10T05:28:42.319Z,10.37
2023-05-10T05:31:10.276Z,10.93
2023-05-10T05:33:38.183Z,12.77
2023-05-10T05:36:08.156Z,11.77
2023-05-10T05:38:35.988Z,10.13
2023-05-10T05:41:04.044Z,13.30
2023-05-10T05:43:31.719Z,11.83
2023-05-10T05:45:59.694Z,12.67
2023-05-10T05:48:27.422Z,8.77
2023-05-10T05:50:57.336Z,9.70
2023-05-10T05:53:26.554Z,10.77
2023-05-10T05:55:55.459Z,9.23
2023-05-10T05:58:23.604Z,8.70
2023-05-10T06:00:52.589Z,11.57
2023-05-10T06:03:21.017Z,11.33
2023-05-10T06:05:49.593Z,10.77
2023-05-10T06:08:17.396Z,10.07
2023-05-10T06:10:46.459Z,10.13
2023-05-10T06:13:14.298Z,10.17
2023-05-10T06:15:42.066Z,10.10
2023-05-10T06:18:09.803Z,11.97
2023-05-10T06:20:38.622Z,10.50
2023-05-10T06:23:06.340Z,10.23
2023-05-10T06:25:34.053Z,10.10
2023-05-10T06:28:03.600Z,9.47
2023-05-10T06:30:31.620Z,9.60
2023-05-10T06:33:00.680Z,9.60
2023-05-10T06:35:28.449Z,9.93
2023-05-10T06:37:56.454Z,10.23
2023-05-10T06:40:24.130Z,8.23
2023-05-10T06:42:52.165Z,7.93
2023-05-10T06:45:21.673Z,8.80
2023-05-10T06:47:49.433Z,10.37
2023-05-10T06:50:17.252Z,8.63
2023-05-10T06:52:44.969Z,9.67
2023-05-10T06:55:12.737Z,7.40
2023-05-10T06:57:41.644Z,8.10
2023-05-10T07:00:10.650Z,7.60
2023-05-10T07:02:39.821Z,8.03
2023-05-10T07:05:08.137Z,11.90
2023-05-10T07:07:36.063Z,7.90
2023-05-10T07:10:04.074Z,9.53
2023-05-10T07:12:31.992Z,7.20
2023-05-10T07:14:59.774Z,8.33
2023-05-10T07:17:27.834Z,7.23
2023-05-10T07:19:56.972Z,7.07
2023-05-10T07:22:24.694Z,8.73
2023-05-10T07:24:52.463Z,7.27
2023-05-10T07:27:20.228Z,6.37
2023-05-10T07:29:47.982Z,8.70
2023-05-10T07:32:15.739Z,6.87
2023-05-10T07:34:43.604Z,6.70
2023-05-10T07:37:13.641Z,7.57
2023-05-10T07:39:41.532Z,7.13
2023-05-10T07:42:09.480Z,7.13
2023-05-10T07:44:37.188Z,7.57
2023-05-10T07:47:05.054Z,8.37
2023-05-10T07:49:32.788Z,12.07
2023-05-10T07:52:00.506Z,7.13
2023-05-10T07:54:29.667Z,6.97
2023-05-10T07:56:57.612Z,7.40
2023-05-10T07:59:25.432Z,9.23
2023-05-10T08:01:53.235Z,9.90
2023-05-10T08:04:21.448Z,7.60
2023-05-10T08:06:49.414Z,8.87
2023-05-10T08:09:18.748Z,7.87
2023-05-10T08:11:47.798Z,8.47
2023-05-10T08:14:15.546Z,9.13
2023-05-10T08:16:43.320Z,10.40
2023-05-10T08:19:11.091Z,8.40
2023-05-10T08:21:38.822Z,9.40
2023-05-10T08:24:07.211Z,10.10
2023-05-10T08:26:35.602Z,10.23
2023-05-10T08:29:04.766Z,7.27
2023-05-10T08:31:32.572Z,7.07
2023-05-10T08:34:01.295Z,5.37
2023-05-10T08:36:29.268Z,6.97
2023-05-10T08:38:56.976Z,5.47
2023-05-10T08:41:31.483Z,4.87
2023-05-10T08:44:08.588Z,4.67
2023-05-10T08:46:41.635Z,4.23
2023-05-10T08:49:09.764Z,3.67
2023-05-10T08:51:41.842Z,4.67
2023-05-10T08:54:11.399Z,3.50
2023-05-10T08:56:39.295Z,3.37
2023-05-10T08:59:07.200Z,3.27
2023-05-10T09:01:38.975Z,3.27
2023-05-10T09:04:07.096Z,2.63
2023-05-10T09:06:35.980Z,3.17
2023-05-10T09:09:04.378Z,2.33
2023-05-10T09:11:32.725Z,1.70
2023-05-10T09:14:00.506Z,1.40
2023-05-10T09:16:28.509Z,1.60
2023-05-10T09:18:58.371Z,1.80
2023-05-10T09:21:28.329Z,1.60
2023-05-10T09:23:58.668Z,2.30
2023-05-10T09:26:26.622Z,2.23
2023-05-10T09:28:55.703Z,2.30
2023-05-10T09:31:24.720Z,2.30
2023-05-10T09:33:53.325Z,2.07
2023-05-10T09:36:22.449Z,3.50
2023-05-10T09:38:52.682Z,2.17
2023-05-10T09:41:21.631Z,4.07
2023-05-10T09:43:49.997Z,2.47
2023-05-10T09:46:18.380Z,3.43
2023-05-10T09:48:47.825Z,2.47
2023-05-10T09:51:22.466Z,2.87
2023-05-10T09:53:51.632Z,2.43
2023-05-10T09:56:38.575Z,2.77
2023-05-10T09:59:07.223Z,3.03
2023-05-10T10:01:35.564Z,4.30
2023-05-10T10:04:06.114Z,4.60
2023-05-10T10:06:40.645Z,2.60
2023-05-10T10:09:09.308Z,3.23
2023-05-10T10:11:38.339Z,3.83
2023-05-10T10:14:06.476Z,3.57
2023-05-10T10:16:34.881Z,2.97
2023-05-10T10:19:02.980Z,4.40
2023-05-10T10:21:32.626Z,3.13
2023-05-10T10:24:01.673Z,3.13
2023-05-10T10:26:29.702Z,3.47
2023-05-10T10:29:06.470Z,4.60
2023-05-10T10:31:39.790Z,3.10
2023-05-10T10:34:08.924Z,4.67
2023-05-10T10:36:42.630Z,5.27
2023-05-10T10:39:16.668Z,3.63
2023-05-10T10:41:52.342Z,4.10
2023-05-10T10:44:37.841Z,3.27
2023-05-10T10:47:14.107Z,3.63
2023-05-10T10:49:50.567Z,3.97
2023-05-10T10:52:24.300Z,3.53
2023-05-10T10:54:54.753Z,3.63
2023-05-10T10:57:23.594Z,3.67
2023-05-10T10:59:51.434Z,4.13
2023-05-10T11:02:46.915Z,3.73
2023-05-10T11:05:38.660Z,5.00
2023-05-10T11:08:15.700Z,4.17
2023-05-10T11:10:53.701Z,3.70
2023-05-10T11:13:31.614Z,4.00
2023-05-10T11:16:00.016Z,3.73
2023-05-10T11:18:29.725Z,3.73
2023-05-10T11:20:59.800Z,4.70
2023-05-10T11:23:32.761Z,5.77
2023-05-10T11:26:02.710Z,6.07
2023-05-10T11:28:30.590Z,4.67
2023-05-10T11:30:59.371Z,3.70
2023-05-10T11:33:27.142Z,6.07
2023-05-10T11:35:54.936Z,4.00
2023-05-10T11:38:23.688Z,3.50
2023-05-10T11:40:54.213Z,3.80
2023-05-10T11:43:29.211Z,3.17
2023-05-10T11:45:57.125Z,3.00
2023-05-10T11:48:25.222Z,4.47
2023-05-10T11:50:53.793Z,3.43
2023-05-10T11:53:23.719Z,3.07
2023-05-10T11:55:52.533Z,3.63
2023-05-10T11:58:22.297Z,5.13
2023-05-10T12:00:52.109Z,4.07
2023-05-10T12:03:20.101Z,4.50
2023-05-10T12:05:47.931Z,5.73
2023-05-10T12:08:17.646Z,4.93
2023-05-10T12:10:45.371Z,3.30
2023-05-10T12:13:14.981Z,4.20
2023-05-10T12:15:43.625Z,3.53
2023-05-10T12:18:13.652Z,6.53
2023-05-10T12:20:42.189Z,4.83
2023-05-10T12:23:11.630Z,5.70
2023-05-10T12:25:40.229Z,5.60
2023-05-10T12:28:09.383Z,5.33
2023-05-10T12:30:38.070Z,4.97
2023-05-10T12:33:12.749Z,3.97
2023-05-10T12:35:47.774Z,6.53
2023-05-10T12:38:30.504Z,4.80
2023-05-10T12:40:59.341Z,5.03
2023-05-10T12:43:27.325Z,6.33
2023-05-10T12:45:55.105Z,6.20
2023-05-10T12:48:24.577Z,4.97
2023-05-10T12:50:52.689Z,4.23
2023-05-10T12:53:20.827Z,5.43
2023-05-10T12:55:48.680Z,4.50
2023-05-10T12:58:31.479Z,5.20
2023-05-10T13:01:03.745Z,4.43
2023-05-10T13:03:33.113Z,3.17
2023-05-10T13:06:00.973Z,4.03
2023-05-10T13:08:30.706Z,4.03
2023-05-10T13:10:58.483Z,3.93
2023-05-10T13:13:26.401Z,5.03
2023-05-10T13:15:54.201Z,3.37
2023-05-10T13:18:22.087Z,4.80
2023-05-10T13:20:51.574Z,3.90
2023-05-10T13:23:19.343Z,4.93
2023-05-10T13:25:47.054Z,4.93
2023-05-10T13:28:14.759Z,4.13
2023-05-10T13:30:42.528Z,3.90
2023-05-10T13:33:10.645Z,4.03
2023-05-10T13:35:38.610Z,4.20
2023-05-10T13:38:08.898Z,4.20
2023-05-10T13:40:38.095Z,3.23
2023-05-10T13:43:05.874Z,4.13
2023-05-10T13:45:34.637Z,3.17
2023-05-10T13:48:02.489Z,2.60
2023-05-10T13:50:30.348Z,3.00
2023-05-10T13:52:58.182Z,2.93
2023-05-10T13:55:27.287Z,3.90
2023-05-10T13:57:55.013Z,4.20
2023-05-10T14:00:22.896Z,3.17
2023-05-10T14:02:51.137Z,4.30
2023-05-10T14:05:22.224Z,3.57
2023-05-10T14:07:53.086Z,3.63
2023-05-10T14:10:20.934Z,5.03
2023-05-10T14:12:50.685Z,2.50
2023-05-10T14:15:19.178Z,2.83
2023-05-10T14:17:47.183Z,2.70
2023-05-10T14:20:15.033Z,2.80
2023-05-10T14:22:43.666Z,2.53
2023-05-10T14:25:11.433Z,2.83
2023-05-10T14:27:39.180Z,4.00
2023-05-10T14:30:09.883Z,2.30
2023-05-10T14:32:38.668Z,2.33
2023-05-10T14:35:09.007Z,3.70
2023-05-10T14:37:38.585Z,4.33
2023-05-10T14:40:08.784Z,2.60
2023-05-10T14:42:36.494Z,3.17
2023-05-10T14:45:04.757Z,3.37
2023-05-10T14:47:34.060Z,5.53
2023-05-10T14:50:01.736Z,8.00
2023-05-10T14:52:29.452Z,8.70
2023-05-10T14:54:58.147Z,6.70
2023-05-10T14:57:26.635Z,8.97
2023-05-10T14:59:54.286Z,8.57
2023-05-10T15:02:22.525Z,9.27
2023-05-10T15:04:52.238Z,8.90
2023-05-10T15:07:20.761Z,7.17
2023-05-10T15:09:48.743Z,8.33
2023-05-10T15:12:16.406Z,8.23
2023-05-10T15:14:44.234Z,6.73
2023-05-10T15:17:12.110Z,7.27
2023-05-10T15:19:39.831Z,9.73
2023-05-10T15:22:08.899Z,6.77
2023-05-10T15:24:36.683Z,8.47
2023-05-10T15:27:04.457Z,6.57
2023-05-10T15:29:32.595Z,9.23
2023-05-10T15:32:00.373Z,7.83
2023-05-10T15:34:29.618Z,8.23
2023-05-10T15:36:57.491Z,8.43
2023-05-10T15:39:26.636Z,7.97
2023-05-10T15:41:54.362Z,8.70
2023-05-10T15:44:22.112Z,8.57
2023-05-10T15:46:50.729Z,9.27
2023-05-10T15:49:18.870Z,9.10
2023-05-10T15:51:46.633Z,9.17
2023-05-10T15:54:14.327Z,8.93
2023-05-10T15:56:43.422Z,10.00
2023-05-10T15:59:11.800Z,10.60
2023-05-10T16:01:39.681Z,8.50
2023-05-10T16:04:07.459Z,8.87
2023-05-10T16:06:36.477Z,9.57
2023-05-10T16:09:04.706Z,9.10
2023-05-10T16:11:32.501Z,11.37
2023-05-10T16:14:01.616Z,12.47
2023-05-10T16:16:29.434Z,9.90
2023-05-10T16:18:57.796Z,10.07
2023-05-10T16:21:26.690Z,9.67
2023-05-10T16:23:54.551Z,11.10
2023-05-10T16:26:22.605Z,11.23
2023-05-10T16:28:50.518Z,13.03
2023-05-10T16:31:20.424Z,13.67
2023-05-10T16:33:48.236Z,14.83
2023-05-10T16:36:15.900Z,18.33
2023-05-10T16:38:43.623Z,20.50
2023-05-10T16:41:11.427Z,17.57
2023-05-10T16:43:39.129Z,15.00
2023-05-10T16:46:11.583Z,13.67
2023-05-10T16:48:40.658Z,16.30
2023-05-10T16:51:09.095Z,11.90
2023-05-10T16:53:37.009Z,11.90
2023-05-10T16:56:04.965Z,14.40
2023-05-10T16:58:32.893Z,12.37
2023-05-10T17:01:00.604Z,11.47
2023-05-10T17:03:28.770Z,14.90
2023-05-10T17:05:58.940Z,12.20
2023-05-10T17:08:27.084Z,16.30
2023-05-10T17:10:54.821Z,12.97
2023-05-10T17:13:22.649Z,15.93
2023-05-10T17:15:50.541Z,12.17
2023-05-10T17:18:19.540Z,16.07
2023-05-10T17:20:47.498Z,12.13
2023-05-10T17:23:16.876Z,10.70
2023-05-10T17:25:44.626Z,13.77
2023-05-10T17:28:12.400Z,11.33
2023-05-10T17:30:40.825Z,10.30
2023-05-10T17:33:08.591Z,9.90
2023-05-10T17:35:36.340Z,9.37
2023-05-10T17:38:04.081Z,12.07
2023-05-10T17:40:33.170Z,15.90
2023-05-10T17:43:01.216Z,14.83
2023-05-10T17:45:29.088Z,14.03
2023-05-10T17:47:56.844Z,14.27
2023-05-10T17:50:24.608Z,14.73
2023-05-10T17:52:52.310Z,16.20
2023-05-10T17:55:20.138Z,11.33
2023-05-10T17:57:51.160Z,11.37
2023-05-10T18:00:20.731Z,15.47
2023-05-10T18:02:48.475Z,12.73
2023-05-10T18:05:17.158Z,13.17
2023-05-10T18:07:45.259Z,12.80
2023-05-10T18:10:13.687Z,17.10
2023-05-10T18:12:41.569Z,15.80
2023-05-10T18:15:11.768Z,12.43
2023-05-10T18:17:39.576Z,13.33
2023-05-10T18:20:08.522Z,11.23
2023-05-10T18:22:37.077Z,10.90
2023-05-10T18:25:05.331Z,11.50
2023-05-10T18:27:33.216Z,8.93
2023-05-10T18:30:01.071Z,13.23
2023-05-10T18:32:30.380Z,8.40
2023-05-10T18:34:58.784Z,9.10
2023-05-10T18:37:26.793Z,10.17
2023-05-10T18:39:55.561Z,10.10
2023-05-10T18:42:23.322Z,9.10
2023-05-10T18:44:51.232Z,8.47
2023-05-10T18:47:18.999Z,7.27
2023-05-10T18:49:48.107Z,8.53
2023-05-10T18:52:16.046Z,8.63
2023-05-10T18:54:44.310Z,8.20
2023-05-10T18:57:12.348Z,9.77
2023-05-10T18:59:40.140Z,11.13
2023-05-10T19:02:08.554Z,9.50
2023-05-10T19:04:36.434Z,11.33
2023-05-10T19:07:05.523Z,9.03
2023-05-10T19:09:33.265Z,8.07
2023-05-10T19:12:01.413Z,9.37
2023-05-10T19:14:29.710Z,7.77
2023-05-10T19:16:57.537Z,8.10
2023-05-10T19:19:25.265Z,7.67
2023-05-10T19:21:54.991Z,9.40
2023-05-10T19:24:25.862Z,9.77
2023-05-10T19:26:55.302Z,9.87
2023-05-10T19:29:23.128Z,9.10
2023-05-10T19:31:52.365Z,10.90
2023-05-10T19:34:20.849Z,8.37
2023-05-10T19:36:48.514Z,7.53
2023-05-10T19:39:16.465Z,8.70
2023-05-10T19:41:45.526Z,8.87
2023-05-10T19:44:13.490Z,7.70
2023-05-10T19:46:41.244Z,7.70
2023-05-10T19:49:09.189Z,7.20
2023-05-10T19:51:36.931Z,8.23
2023-05-10T19:54:04.919Z,8.07
2023-05-10T19:56:32.808Z,10.17
2023-05-10T19:59:03.229Z,9.47
2023-05-10T20:01:32.844Z,9.27
2023-05-10T20:04:00.718Z,8.93
2023-05-10T20:06:28.890Z,8.63
2023-05-10T20:08:56.655Z,8.63
2023-05-10T20:11:24.744Z,7.60
2023-05-10T20:13:53.033Z,8.03
2023-05-10T20:16:23.445Z,9.53
2023-05-10T20:18:54.340Z,6.63
2023-05-10T20:21:24.765Z,9.40
2023-05-10T20:23:52.576Z,6.10
2023-05-10T20:26:21.589Z,6.67
2023-05-10T20:28:49.310Z,6.40
2023-05-10T20:31:17.434Z,5.73
2023-05-10T20:33:46.621Z,6.47
2023-05-10T20:36:14.956Z,6.53
2023-05-10T20:38:42.637Z,8.23
2023-05-10T20:41:10.438Z,6.20
2023-05-10T20:43:38.207Z,8.27
2023-05-10T20:46:06.504Z,6.40
2023-05-10T20:48:34.314Z,7.57
2023-05-10T20:51:03.582Z,7.30
2023-05-10T20:53:31.392Z,6.30
2023-05-10T20:55:59.096Z,7.07
2023-05-10T20:58:27.578Z,6.90
2023-05-10T21:00:55.490Z,6.87
2023-05-10T21:03:23.164Z,6.60
2023-05-10T21:05:51.006Z,6.47
2023-05-10T21:08:20.358Z,7.20
2023-05-10T21:10:48.165Z,7.30
2023-05-10T21:13:16.133Z,8.90
2023-05-10T21:15:43.853Z,8.20
2023-05-10T21:18:11.665Z,8.60
2023-05-10T21:20:39.408Z,8.03
2023-05-10T21:23:07.223Z,8.97
2023-05-10T21:25:37.598Z,7.80
2023-05-10T21:28:05.667Z,9.30
2023-05-10T21:30:33.495Z,9.33
2023-05-10T21:33:02.580Z,10.23
2023-05-10T21:35:31.567Z,8.17
2023-05-10T21:37:59.318Z,8.43
2023-05-10T21:40:26.978Z,8.87
2023-05-10T21:42:56.100Z,10.20
2023-05-10T21:45:23.831Z,9.93
2023-05-10T21:47:51.634Z,9.10
2023-05-10T21:50:19.945Z,7.83
2023-05-10T21:52:47.765Z,8.37
2023-05-10T21:55:16.699Z,7.97
2023-05-10T21:57:44.721Z,7.70
2023-05-10T22:00:16.274Z,7.63
2023-05-10T22:02:44.180Z,7.27
2023-05-10T22:05:11.950Z,7.47
2023-05-10T22:07:39.749Z,7.80
2023-05-10T22:10:08.752Z,7.67
2023-05-10T22:12:36.534Z,6.97
2023-05-10T22:17:36.637Z,9.60
2023-05-10T22:20:04.737Z,9.43
2023-05-10T22:22:32.508Z,8.90
2023-05-10T22:25:00.294Z,8.47
2023-05-10T22:27:28.285Z,8.30
2023-05-10T22:29:57.310Z,8.83
2023-05-10T22:32:25.100Z,8.33
2023-05-10T22:34:54.250Z,9.23
2023-05-10T22:37:22.058Z,9.17
2023-05-10T22:39:50.237Z,10.27
2023-05-10T22:42:17.944Z,9.17
2023-05-10T22:44:45.874Z,9.00
2023-05-10T22:47:13.602Z,11.50
2023-05-10T22:49:41.456Z,11.07
2023-05-10T22:52:11.222Z,11.47
2023-05-10T22:54:38.911Z,10.47
2023-05-10T22:57:06.929Z,8.90
2023-05-10T22:59:34.675Z,8.90
2023-05-10T23:02:02.494Z,8.27
2023-05-10T23:04:30.311Z,9.63
2023-05-10T23:06:58.048Z,9.50
2023-05-10T23:09:27.190Z,10.87
2023-05-10T23:11:55.014Z,9.47
2023-05-10T23:14:22.672Z,11.83
2023-05-10T23:16:50.477Z,10.47
2023-05-10T23:19:18.232Z,12.53
2023-05-10T23:21:45.884Z,12.60
2023-05-10T23:24:13.573Z,14.83
2023-05-10T23:26:43.521Z,14.30
2023-05-10T23:29:11.369Z,12.67
2023-05-10T23:31:41.040Z,10.70
2023-05-10T23:34:09.390Z,12.63
2023-05-10T23:36:37.034Z,12.77
2023-05-10T23:39:05.194Z,15.43
2023-05-10T23:41:32.892Z,14.27
2023-05-10T23:44:02.597Z,11.83
2023-05-10T23:46:30.463Z,12.00
2023-05-10T23:48:58.172Z,11.90
2023-05-10T23:51:25.997Z,11.67
2023-05-10T23:53:53.770Z,12.90
2023-05-10T23:56:22.084Z,12.17
2023-05-10T23:58:49.777Z,13.47
